Currently 74°F in Riverside (Orangecrest), California, USA
74°F
76°F / 74°F
calm
0.00"
Wednesday, June 29, 2022 2:20 AM PDT

Riverside (Orangecrest), California Weather Summary
Last 36 Hours

Temperature Winds Hourly Humidity Dewpoint
Time Report Norm Report Norm Max Gusts Precip. Rpt. Norm Rpt. Norm Pressure
1,3Wed 02:20 AM  73.8°F  64°F  calm  2 mph  none  0.00"  31%  69%  40°F  53°F  N/A
Wed 02:00 AM  74.1°F  64°F  calm  2 mph  3 mph  0.00"  32%  68%  41°F  53°F  N/A
Wed 01:00 AM  75.3°F  65°F  2 mph SW  2 mph  none  0.00"  29%  66%  40°F  53°F  N/A
2Wed 12:17 AM  76.0°F  66°F  calm  2 mph  none  ----  30%  64%  42°F  53°F  N/A
Wed 12:00 AM  76.0°F  66°F  calm  3 mph  none  0.00"  33%  63%  44°F  53°F  N/A
Tue 11:00 PM  77.4°F  68°F  calm  3 mph  none  0.00"  31%  59%  43°F  52°F  N/A
Tue 10:00 PM  79.9°F  69°F  calm  3 mph  3 mph  0.00"  24%  54%  39°F  52°F  N/A
Tue 09:00 PM  81.4°F  72°F  2 mph SW  3 mph  11 mph  0.00"  21%  48%  37°F  50°F  N/A
Tue 08:00 PM  84.1°F  75°F  calm  4 mph  10 mph  0.00"  17%  42%  33°F  49°F  N/A
Tue 07:00 PM  87.8°F  78°F  calm  5 mph  16 mph  0.00"  11%  35%  25°F  48°F  N/A
Tue 06:00 PM  88.7°F  81°F  calm  6 mph  17 mph  0.00"  10%  31%  22°F  47°F  N/A
Tue 05:00 PM  90.2°F  83°F  6 mph SE  5 mph  20 mph  0.00"  9%  28%  21°F  46°F  N/A
Tue 04:00 PM  92.0°F  85°F  calm  6 mph  none  0.00"  7%  27%  16°F  46°F  N/A
Tue 03:00 PM  93.0°F  85°F  calm  6 mph  2 mph  0.00"  10%  27%  26°F  46°F  N/A
Tue 02:00 PM  93.7°F  85°F  calm  5 mph  none  0.00"  9%  27%  24°F  46°F  N/A
Tue 01:00 PM  92.3°F  83°F  calm  5 mph  9 mph  0.00"  12%  30%  31°F  47°F  N/A
Tue 12:00 PM  90.8°F  81°F  calm  4 mph  none  0.00"  12%  33%  28°F  48°F  N/A
Tue 11:00 AM  89.3°F  78°F  calm  3 mph  none  0.00"  15%  39%  34°F  50°F  N/A
Tue 10:00 AM  89.6°F  75°F  calm  2 mph  none  0.00"  18%  47%  40°F  53°F  N/A
Tue 09:00 AM  84.4°F  71°F  calm  2 mph  none  0.00"  18%  58%  34°F  54°F  N/A
Tue 08:00 AM  80.3°F  67°F  calm  1 mph  5 mph  0.00"  26%  67%  41°F  55°F  N/A
Tue 07:00 AM  77.3°F  64°F  calm  1 mph  2 mph  0.00"  30%  73%  42°F  55°F  N/A
Tue 06:00 AM  75.1°F  62°F  calm  1 mph  2 mph  0.00"  27%  75%  38°F  54°F  N/A
Tue 05:00 AM  75.9°F  62°F  calm  1 mph  5 mph  0.00"  28%  75%  39°F  54°F  N/A
Tue 04:00 AM  75.2°F  63°F  1 mph SW  1 mph  none  0.00"  31%  74%  41°F  54°F  N/A
Tue 03:00 AM  75.8°F  63°F  calm  2 mph  4 mph  0.00"  30%  72%  41°F  54°F  N/A
Tue 02:00 AM  77.3°F  64°F  calm  2 mph  3 mph  0.00"  26%  70%  39°F  54°F  N/A
Tue 01:00 AM  77.4°F  65°F  2 mph SW  2 mph  3 mph  0.00"  27%  68%  40°F  53°F  N/A
Tue 12:00 AM  76.9°F  66°F  1 mph SW  2 mph  4 mph  0.00"  30%  65%  42°F  53°F  N/A
Mon 11:00 PM  78.2°F  67°F  2 mph SW  3 mph  10 mph  0.00"  28%  60%  41°F  53°F  N/A
Mon 10:00 PM  80.4°F  69°F  calm  3 mph  9 mph  0.00"  23%  56%  37°F  52°F  N/A
Mon 09:00 PM  82.0°F  71°F  6 mph SE  4 mph  10 mph  0.00"  19%  50%  34°F  51°F  N/A
Mon 08:00 PM  86.5°F  74°F  calm  4 mph  14 mph  0.00"  8%  44%  17°F  50°F  N/A
Mon 07:00 PM  90.2°F  78°F  calm  4 mph  19 mph  0.00"  6%  36%  11°F  48°F  N/A
Mon 06:00 PM  90.5°F  81°F  9 mph S  6 mph  18 mph  0.00"  11%  32%  28°F  47°F  N/A
Mon 05:00 PM  94.1°F  83°F  calm  5 mph  1 mph  0.00"  10%  30%  27°F  47°F  N/A
Mon 04:00 PM  95.9°F  84°F  calm  6 mph  none  0.00"  12%  28%  34°F  47°F  N/A
Mon 03:00 PM  97.2°F  85°F  calm  6 mph  17 mph  0.00"  14%  28%  39°F  47°F  N/A

  1. Current weather data. No green row appears if the current weather data is also the high or low for the current day.
  2. High temperature for the current day.
  3. Low temperature for the current day.

The Riverside (Orangecrest), California weather pages are a service of WeatherCurrents.
Copyright ©2022  WeatherCurrents. All rights reserved. - Submit questions and comments - Privacy Policy

This page automatically refreshes every 10 minutes.